createdAt,value
2023-01-26T00:01:21.120Z,101220.97
2023-01-26T00:04:11.155Z,101201.00
2023-01-26T00:06:58.947Z,101214.69
2023-01-26T00:09:46.729Z,101233.38
2023-01-26T00:12:34.387Z,101218.19
2023-01-26T00:15:24.616Z,101230.47
2023-01-26T00:18:12.246Z,101218.28
2023-01-26T00:21:02.606Z,101222.56
2023-01-26T00:23:51.998Z,101214.09
2023-01-26T00:26:39.809Z,101212.78
2023-01-26T00:29:27.506Z,101217.41
2023-01-26T00:32:15.274Z,101217.69
2023-01-26T00:35:03.774Z,101192.63
2023-01-26T00:37:51.451Z,101223.06
2023-01-26T00:40:40.895Z,101195.84
2023-01-26T00:43:29.652Z,101218.78
2023-01-26T00:46:17.365Z,101211.09
2023-01-26T00:49:07.893Z,101203.56
2023-01-26T00:51:58.413Z,101225.38
2023-01-26T00:54:46.459Z,101229.44
2023-01-26T00:57:35.496Z,101227.28
2023-01-26T01:00:24.640Z,101226.72
2023-01-26T01:03:12.287Z,101226.78
2023-01-26T01:05:59.971Z,101211.78
2023-01-26T01:08:52.622Z,101190.78
2023-01-26T01:14:45.593Z,101215.41
2023-01-26T01:17:36.746Z,101211.31
2023-01-26T01:20:24.368Z,101202.06
2023-01-26T01:23:14.400Z,101179.22
2023-01-26T01:26:02.865Z,101191.25
2023-01-26T01:28:55.533Z,101178.75
2023-01-26T01:31:43.555Z,101152.22
2023-01-26T01:34:31.359Z,101165.28
2023-01-26T01:37:19.075Z,101173.97
2023-01-26T01:40:07.504Z,101155.81
2023-01-26T01:42:55.117Z,101166.13
2023-01-26T01:45:47.706Z,101157.13
2023-01-26T01:48:49.420Z,101172.66
2023-01-26T01:51:48.297Z,101159.63
2023-01-26T01:54:49.005Z,101154.50
2023-01-26T01:57:55.399Z,101139.25
2023-01-26T02:00:44.029Z,101124.47
2023-01-26T02:03:33.620Z,101135.97
2023-01-26T02:06:42.550Z,101148.53
2023-01-26T02:09:53.541Z,101146.91
2023-01-26T02:12:42.925Z,101155.81
2023-01-26T02:15:33.091Z,101120.69
2023-01-26T02:18:21.410Z,101140.66
2023-01-26T02:21:16.756Z,101139.03
2023-01-26T02:24:12.780Z,101125.16
2023-01-26T02:27:03.150Z,101113.16
2023-01-26T02:29:51.929Z,101116.69
2023-01-26T02:32:39.718Z,101116.66
2023-01-26T02:35:28.010Z,101113.69
2023-01-26T02:38:16.971Z,101126.75
2023-01-26T02:41:11.456Z,101111.78
2023-01-26T02:43:59.403Z,101109.63
2023-01-26T02:46:47.018Z,101111.84
2023-01-26T02:49:48.248Z,101109.34
2023-01-26T02:52:38.871Z,101109.59
2023-01-26T02:55:32.272Z,101099.25
2023-01-26T02:58:19.820Z,101090.28
2023-01-26T03:01:07.653Z,101066.34
2023-01-26T03:04:07.476Z,101087.34
2023-01-26T03:06:55.809Z,101072.91
2023-01-26T03:09:43.420Z,101067.44
2023-01-26T03:12:31.234Z,101063.63
2023-01-26T03:15:37.345Z,101035.38
2023-01-26T03:18:43.639Z,101059.91
2023-01-26T03:21:53.098Z,101056.03
2023-01-26T03:24:59.693Z,101054.16
2023-01-26T03:27:49.199Z,101001.41
2023-01-26T03:30:42.443Z,101043.59
2023-01-26T03:33:30.142Z,101040.06
2023-01-26T03:36:18.121Z,101023.47
2023-01-26T03:39:05.790Z,100982.38
2023-01-26T03:42:12.519Z,101026.50
2023-01-26T03:45:19.430Z,101018.81
2023-01-26T03:48:30.277Z,101010.72
2023-01-26T03:51:36.392Z,101038.41
2023-01-26T03:54:42.929Z,101031.03
2023-01-26T03:57:30.553Z,101031.91
2023-01-26T04:00:22.399Z,101009.84
2023-01-26T04:03:30.465Z,101026.75
2023-01-26T04:06:36.780Z,100980.78
2023-01-26T04:09:24.566Z,101007.72
2023-01-26T04:12:12.435Z,101010.16
2023-01-26T04:15:32.044Z,101012.91
2023-01-26T04:18:40.234Z,101008.00
2023-01-26T04:21:33.606Z,101014.53
2023-01-26T04:24:24.905Z,100968.28
2023-01-26T04:27:18.572Z,101001.47
2023-01-26T04:30:09.694Z,101007.44
2023-01-26T04:32:59.508Z,101002.84
2023-01-26T04:35:47.300Z,100997.13
2023-01-26T04:38:35.707Z,101005.31
2023-01-26T04:41:28.148Z,100996.63
2023-01-26T04:44:30.884Z,100981.94
2023-01-26T04:47:25.862Z,100985.19
2023-01-26T04:50:29.127Z,100984.38
2023-01-26T04:53:23.534Z,100883.47
2023-01-26T04:56:18.372Z,100948.47
2023-01-26T04:59:08.514Z,100977.03
2023-01-26T05:02:03.982Z,100975.97
2023-01-26T05:05:04.677Z,100964.53
2023-01-26T05:07:56.227Z,100959.91
2023-01-26T05:10:51.611Z,100964.00
2023-01-26T05:14:08.420Z,100939.47
2023-01-26T05:17:04.540Z,100955.25
2023-01-26T05:20:08.898Z,100972.97
2023-01-26T05:23:00.819Z,100962.66
2023-01-26T05:26:07.508Z,100965.09
2023-01-26T05:29:13.048Z,100962.09
2023-01-26T05:32:00.907Z,100958.56
2023-01-26T05:34:48.923Z,100929.16
2023-01-26T05:37:37.007Z,100944.44
2023-01-26T05:40:26.397Z,100942.78
2023-01-26T05:43:14.583Z,100959.41
2023-01-26T05:46:12.395Z,100936.25
2023-01-26T05:49:03.299Z,100923.19
2023-01-26T05:51:51.194Z,100962.94
2023-01-26T05:54:41.088Z,100965.94
2023-01-26T05:57:28.769Z,100909.59
2023-01-26T06:00:24.411Z,100943.88
2023-01-26T06:03:20.488Z,100915.03
2023-01-26T06:06:08.175Z,100950.16
2023-01-26T06:09:09.060Z,100950.69
2023-01-26T06:12:23.924Z,100939.56
2023-01-26T06:15:17.290Z,100949.91
2023-01-26T06:18:09.213Z,100946.66
2023-01-26T06:21:01.384Z,100947.13
2023-01-26T06:23:49.559Z,100946.34
2023-01-26T06:26:37.261Z,100939.25
2023-01-26T06:29:24.951Z,100951.25
2023-01-26T06:32:14.169Z,100956.97
2023-01-26T06:35:07.244Z,100916.44
2023-01-26T06:37:55.353Z,100939.31
2023-01-26T06:40:42.953Z,100933.88
2023-01-26T06:43:35.756Z,100926.81
2023-01-26T06:46:23.805Z,100910.78
2023-01-26T06:49:16.876Z,100927.09
2023-01-26T06:52:27.455Z,100915.13
2023-01-26T06:55:36.511Z,100909.97
2023-01-26T06:58:45.481Z,100914.06
2023-01-26T07:01:56.077Z,100917.84
2023-01-26T07:04:43.598Z,100912.13
2023-01-26T07:07:33.546Z,100906.72
2023-01-26T07:10:22.994Z,100905.91
2023-01-26T07:13:10.757Z,100895.56
2023-01-26T07:16:02.921Z,100876.78
2023-01-26T07:18:54.225Z,100900.22
2023-01-26T07:21:41.756Z,100888.53
2023-01-26T07:24:32.797Z,100895.00
2023-01-26T07:27:20.413Z,100892.31
2023-01-26T07:30:09.558Z,100869.22
2023-01-26T07:33:00.536Z,100892.31
2023-01-26T07:35:48.201Z,100876.00
2023-01-26T07:38:35.740Z,100891.22
2023-01-26T07:41:23.342Z,100885.53
2023-01-26T07:44:14.068Z,100879.25
2023-01-26T07:47:01.640Z,100853.72
2023-01-26T07:49:51.168Z,100884.41
2023-01-26T07:52:38.842Z,100893.66
2023-01-26T07:55:26.645Z,100882.53
2023-01-26T07:58:14.352Z,100864.88
2023-01-26T08:01:10.629Z,100879.81
2023-01-26T08:03:58.444Z,100882.28
2023-01-26T08:06:46.007Z,100883.91
2023-01-26T08:09:38.039Z,100868.38
2023-01-26T08:12:26.516Z,100874.38
2023-01-26T08:15:14.204Z,100835.78
2023-01-26T08:18:03.969Z,100857.78
2023-01-26T08:20:54.892Z,100824.63
2023-01-26T08:23:42.527Z,100861.31
2023-01-26T08:26:30.145Z,100867.84
2023-01-26T08:29:20.995Z,100870.56
2023-01-26T08:32:09.490Z,100862.94
2023-01-26T08:34:57.029Z,100861.59
2023-01-26T08:37:44.709Z,100845.28
2023-01-26T08:40:34.662Z,100861.28
2023-01-26T08:43:22.295Z,100866.19
2023-01-26T08:46:10.363Z,100822.72
2023-01-26T08:49:00.736Z,100849.38
2023-01-26T08:51:48.295Z,100833.84
2023-01-26T08:54:37.279Z,100846.91
2023-01-26T08:57:24.932Z,100831.72
2023-01-26T09:00:13.496Z,100827.88
2023-01-26T09:03:03.079Z,100800.75
2023-01-26T09:05:50.893Z,100836.31
2023-01-26T09:08:38.479Z,100834.09
2023-01-26T09:11:26.114Z,100824.59
2023-01-26T09:14:13.671Z,100836.78
2023-01-26T09:17:01.175Z,100811.28
2023-01-26T09:19:48.749Z,100810.16
2023-01-26T09:22:36.613Z,100809.03
2023-01-26T09:25:24.103Z,100802.81
2023-01-26T09:28:13.153Z,100800.63
2023-01-26T09:31:10.000Z,100791.13
2023-01-26T09:33:57.763Z,100801.44
2023-01-26T09:36:45.341Z,100790.03
2023-01-26T09:39:34.249Z,100788.97
2023-01-26T09:42:36.678Z,100778.06
2023-01-26T09:45:31.957Z,100776.69
2023-01-26T09:48:25.373Z,100772.09
2023-01-26T09:52:00.425Z,100764.22
2023-01-26T09:54:51.621Z,100772.38
2023-01-26T09:57:55.832Z,100768.00
2023-01-26T10:00:53.302Z,100763.69
2023-01-26T10:04:04.449Z,100765.28
2023-01-26T10:06:59.869Z,100758.22
2023-01-26T10:10:10.755Z,100751.91
2023-01-26T10:12:59.874Z,100726.50
2023-01-26T10:16:19.392Z,100755.78
2023-01-26T10:19:16.891Z,100751.91
2023-01-26T10:22:10.871Z,100740.88
2023-01-26T10:25:00.497Z,100710.72
2023-01-26T10:27:48.253Z,100714.97
2023-01-26T10:30:35.913Z,100726.09
2023-01-26T10:33:34.336Z,100726.38
2023-01-26T10:36:22.454Z,100716.59
2023-01-26T10:39:15.267Z,100699.66
2023-01-26T10:42:06.444Z,100706.47
2023-01-26T10:44:54.133Z,100703.28
2023-01-26T10:47:41.900Z,100664.50
2023-01-26T10:50:29.528Z,100694.59
2023-01-26T10:53:29.943Z,100694.94
2023-01-26T10:56:17.697Z,100695.47
2023-01-26T10:59:08.994Z,100681.91
2023-01-26T11:01:59.198Z,100683.53
2023-01-26T11:05:06.977Z,100676.16
2023-01-26T11:08:00.587Z,100677.19
2023-01-26T11:10:54.381Z,100666.84
2023-01-26T11:13:41.975Z,100657.53
2023-01-26T11:16:29.611Z,100653.41
2023-01-26T11:19:43.359Z,100631.03
2023-01-26T11:22:51.148Z,100637.28
2023-01-26T11:26:04.486Z,100633.81
2023-01-26T11:28:51.991Z,100621.28
2023-01-26T11:31:57.795Z,100615.03
2023-01-26T11:34:48.182Z,100604.72
2023-01-26T11:38:14.082Z,100602.75
2023-01-26T11:41:39.746Z,100590.47
2023-01-26T11:45:18.470Z,100589.59
2023-01-26T11:48:50.493Z,100584.06
2023-01-26T11:52:09.761Z,100579.50
2023-01-26T11:55:19.034Z,100573.56
2023-01-26T11:58:29.730Z,100569.72
2023-01-26T12:01:30.349Z,100536.88
2023-01-26T12:04:22.576Z,100554.00
2023-01-26T12:07:29.707Z,100563.91
2023-01-26T12:10:23.182Z,100539.75
2023-01-26T12:13:39.368Z,100553.78
2023-01-26T12:16:45.200Z,100549.06
2023-01-26T12:19:41.233Z,100524.84
2023-01-26T12:22:35.866Z,100511.03
2023-01-26T12:25:26.194Z,100527.75
2023-01-26T12:28:21.506Z,100525.25
2023-01-26T12:31:22.383Z,100542.16
2023-01-26T12:34:13.672Z,100542.06
2023-01-26T12:37:01.117Z,100531.38
2023-01-26T12:40:02.552Z,100537.25
2023-01-26T12:43:04.005Z,100537.47
2023-01-26T12:45:56.150Z,100498.06
2023-01-26T12:48:53.094Z,100541.78
2023-01-26T12:51:47.697Z,100528.19
2023-01-26T12:54:47.060Z,100497.59
2023-01-26T12:57:53.822Z,100520.09
2023-01-26T13:00:51.204Z,100503.38
2023-01-26T13:04:01.315Z,100506.06
2023-01-26T13:07:24.507Z,100499.09
2023-01-26T13:10:15.283Z,100499.06
2023-01-26T13:13:29.085Z,100491.78
2023-01-26T13:16:17.018Z,100510.22
2023-01-26T13:19:04.701Z,100467.03
2023-01-26T13:21:54.969Z,100479.84
2023-01-26T13:24:42.899Z,100489.78
2023-01-26T13:27:44.101Z,100484.66
2023-01-26T13:30:31.754Z,100478.88
2023-01-26T13:33:23.788Z,100481.50
2023-01-26T13:36:17.535Z,100439.72
2023-01-26T13:39:45.601Z,100472.66
2023-01-26T13:43:20.747Z,100461.81
2023-01-26T13:46:29.852Z,100474.13
2023-01-26T13:49:37.023Z,100459.16
2023-01-26T13:55:33.973Z,100463.19
2023-01-26T13:58:23.380Z,100473.84
2023-01-26T14:01:13.550Z,100468.41
2023-01-26T14:04:06.314Z,100447.84
2023-01-26T14:07:01.244Z,100425.97
2023-01-26T14:09:52.729Z,100447.13
2023-01-26T14:12:46.313Z,100452.50
2023-01-26T14:15:35.251Z,100406.78
2023-01-26T14:18:22.942Z,100423.00
2023-01-26T14:21:22.516Z,100427.97
2023-01-26T14:24:10.467Z,100430.75
2023-01-26T14:27:02.246Z,100419.81
2023-01-26T14:29:49.758Z,100417.06
2023-01-26T14:32:37.492Z,100422.19
2023-01-26T14:35:25.663Z,100420.66
2023-01-26T14:38:16.885Z,100428.72
2023-01-26T14:41:09.589Z,100418.13
2023-01-26T14:44:02.028Z,100408.28
2023-01-26T14:47:00.793Z,100408.75
2023-01-26T14:49:57.009Z,100401.94
2023-01-26T14:52:46.774Z,100408.28
2023-01-26T14:55:36.712Z,100405.44
2023-01-26T14:58:33.353Z,100407.31
2023-01-26T15:01:27.000Z,100407.59
2023-01-26T15:04:26.180Z,100404.94
2023-01-26T15:07:34.801Z,100405.69
2023-01-26T15:10:36.952Z,100398.00
2023-01-26T15:13:29.974Z,100386.91
2023-01-26T15:16:23.308Z,100382.03
2023-01-26T15:19:24.307Z,100386.19
2023-01-26T15:22:25.984Z,100382.03
2023-01-26T15:25:26.303Z,100386.66
2023-01-26T15:28:19.628Z,100374.59
2023-01-26T15:31:08.314Z,100384.31
2023-01-26T15:33:56.388Z,100381.31
2023-01-26T15:36:43.961Z,100387.63
2023-01-26T15:39:31.507Z,100375.34
2023-01-26T15:42:25.099Z,100372.63
2023-01-26T15:45:23.513Z,100358.81
2023-01-26T15:48:11.080Z,100373.50
2023-01-26T15:50:58.611Z,100368.00
2023-01-26T15:53:46.374Z,100369.59
2023-01-26T15:56:34.036Z,100356.91
2023-01-26T15:59:21.781Z,100355.56
2023-01-26T16:02:15.453Z,100364.38
2023-01-26T16:05:03.285Z,100354.31
2023-01-26T16:07:54.334Z,100348.03
2023-01-26T16:10:42.527Z,100344.75
2023-01-26T16:13:34.136Z,100336.66
2023-01-26T16:16:22.127Z,100343.22
2023-01-26T16:19:10.989Z,100332.25
2023-01-26T16:22:03.562Z,100316.84
2023-01-26T16:24:51.583Z,100329.72
2023-01-26T16:27:39.290Z,100322.25
2023-01-26T16:30:27.217Z,100321.25
2023-01-26T16:33:25.009Z,100323.19
2023-01-26T16:36:14.627Z,100308.78
2023-01-26T16:39:02.456Z,100304.16
2023-01-26T16:41:51.480Z,100302.06
2023-01-26T16:44:39.279Z,100306.56
2023-01-26T16:47:29.747Z,100290.75
2023-01-26T16:50:20.709Z,100302.28
2023-01-26T16:53:33.287Z,100312.81
2023-01-26T16:56:22.694Z,100305.28
2023-01-26T16:59:13.591Z,100297.94
2023-01-26T17:02:05.239Z,100298.00
2023-01-26T17:05:04.775Z,100289.56
2023-01-26T17:07:52.439Z,100292.28
2023-01-26T17:10:59.892Z,100287.16
2023-01-26T17:13:49.906Z,100296.94
2023-01-26T17:16:37.790Z,100259.13
2023-01-26T17:19:25.603Z,100274.19
2023-01-26T17:22:13.454Z,100293.19
2023-01-26T17:25:01.272Z,100285.59
2023-01-26T17:27:50.065Z,100271.56
2023-01-26T17:30:49.649Z,100285.78
2023-01-26T17:33:37.896Z,100285.50
2023-01-26T17:36:31.565Z,100272.38
2023-01-26T17:39:19.248Z,100272.06
2023-01-26T17:42:07.098Z,100260.13
2023-01-26T17:44:55.814Z,100222.91
2023-01-26T17:47:43.949Z,100238.31
2023-01-26T17:50:34.609Z,100251.56
2023-01-26T17:53:31.834Z,100254.28
2023-01-26T17:56:21.306Z,100240.97
2023-01-26T17:59:22.318Z,100247.66
2023-01-26T18:02:26.992Z,100236.78
2023-01-26T18:05:14.744Z,100236.66
2023-01-26T18:08:05.899Z,100242.66
2023-01-26T18:11:10.808Z,100228.81
2023-01-26T18:14:00.922Z,100226.91
2023-01-26T18:16:51.558Z,100174.91
2023-01-26T18:19:53.909Z,100231.66
2023-01-26T18:22:41.714Z,100222.56
2023-01-26T18:25:29.630Z,100216.19
2023-01-26T18:28:17.635Z,100232.50
2023-01-26T18:31:40.917Z,100217.94
2023-01-26T18:34:28.646Z,100195.50
2023-01-26T18:37:21.501Z,100177.69
2023-01-26T18:40:10.230Z,100210.31
2023-01-26T18:43:01.070Z,100166.25
2023-01-26T18:45:48.711Z,100185.91
2023-01-26T18:48:36.724Z,100160.16
2023-01-26T18:51:24.457Z,100168.28
2023-01-26T18:54:13.216Z,100177.25
2023-01-26T18:57:00.969Z,100145.03
2023-01-26T18:59:51.561Z,100173.66
2023-01-26T19:02:39.324Z,100158.16
2023-01-26T19:05:27.110Z,100164.03
2023-01-26T19:08:15.984Z,100162.16
2023-01-26T19:11:09.584Z,100159.84
2023-01-26T19:14:01.607Z,100155.50
2023-01-26T19:16:49.448Z,100138.63
2023-01-26T19:19:38.529Z,100146.72
2023-01-26T19:22:27.193Z,100143.66
2023-01-26T19:25:14.999Z,100130.47
2023-01-26T19:28:04.150Z,100131.50
2023-01-26T19:30:52.190Z,100120.13
2023-01-26T19:34:00.110Z,100123.81
2023-01-26T19:36:47.991Z,100123.28
2023-01-26T19:39:36.668Z,100104.75
2023-01-26T19:42:24.314Z,100114.63
2023-01-26T19:45:14.780Z,100103.31
2023-01-26T19:48:02.501Z,100081.63
2023-01-26T19:51:06.457Z,100095.16
2023-01-26T19:53:56.374Z,100095.53
2023-01-26T19:56:44.079Z,100083.13
2023-01-26T19:59:31.736Z,100093.38
2023-01-26T20:02:23.687Z,100070.97
2023-01-26T20:05:14.486Z,100073.81
2023-01-26T20:08:03.356Z,100059.72
2023-01-26T20:10:52.948Z,100058.16
2023-01-26T20:13:43.891Z,100061.22
2023-01-26T20:16:34.546Z,100038.47
2023-01-26T20:19:22.362Z,100050.66
2023-01-26T20:22:10.645Z,100019.75
2023-01-26T20:24:58.431Z,100051.03
2023-01-26T20:27:46.458Z,100055.34
2023-01-26T20:30:34.550Z,100020.13
2023-01-26T20:33:25.211Z,100041.50
2023-01-26T20:36:16.712Z,100040.69
2023-01-26T20:39:05.283Z,100035.78
2023-01-26T20:41:54.204Z,100042.88
2023-01-26T20:44:43.381Z,100026.31
2023-01-26T20:47:33.967Z,100032.16
2023-01-26T20:50:24.055Z,100038.41
2023-01-26T20:53:11.887Z,99952.22
2023-01-26T20:56:00.067Z,100009.59
2023-01-26T20:58:50.605Z,100012.03
2023-01-26T21:01:38.488Z,100012.56
2023-01-26T21:04:31.070Z,100010.84
2023-01-26T21:07:21.893Z,100002.66
2023-01-26T21:10:10.264Z,100002.28
2023-01-26T21:12:58.191Z,99998.84
2023-01-26T21:15:51.192Z,99995.16
2023-01-26T21:19:09.593Z,100001.41
2023-01-26T21:21:48.130Z,99969.16
2023-01-26T21:24:36.122Z,99982.06
2023-01-26T21:27:23.868Z,99961.00
2023-01-26T21:30:17.841Z,99962.09
2023-01-26T21:33:12.094Z,99971.56
2023-01-26T21:36:01.653Z,99974.69
2023-01-26T21:38:51.955Z,99993.97
2023-01-26T21:41:57.856Z,99981.06
2023-01-26T21:45:03.623Z,99983.47
2023-01-26T21:48:14.412Z,99965.19
2023-01-26T21:51:23.574Z,99936.84
2023-01-26T21:54:18.045Z,99922.97
2023-01-26T21:57:27.037Z,99945.81
2023-01-26T22:00:15.383Z,99938.25
2023-01-26T22:03:03.516Z,99940.31
2023-01-26T22:05:57.918Z,99890.59
2023-01-26T22:08:45.599Z,99919.25
2023-01-26T22:11:33.573Z,99922.53
2023-01-26T22:14:23.661Z,99913.41
2023-01-26T22:17:11.319Z,99893.09
2023-01-26T22:19:59.777Z,99901.44
2023-01-26T22:22:47.638Z,99904.16
2023-01-26T22:25:41.505Z,99856.69
2023-01-26T22:28:30.863Z,99892.78
2023-01-26T22:31:20.031Z,99875.19
2023-01-26T22:34:11.962Z,99870.31
2023-01-26T22:36:59.744Z,99840.75
2023-01-26T22:39:49.309Z,99882.06
2023-01-26T22:42:37.175Z,99863.66
2023-01-26T22:45:27.588Z,99888.25
2023-01-26T22:48:18.920Z,99883.34
2023-01-26T22:51:27.980Z,99894.25
2023-01-26T22:54:17.334Z,99887.59
2023-01-26T22:57:04.963Z,99897.34
2023-01-26T22:59:55.667Z,99885.16
2023-01-26T23:02:43.261Z,99886.25
2023-01-26T23:05:34.113Z,99853.25
2023-01-26T23:08:23.196Z,99854.63
2023-01-26T23:11:28.138Z,99857.03
2023-01-26T23:14:15.798Z,99851.03
2023-01-26T23:17:04.952Z,99865.94
2023-01-26T23:19:55.336Z,99857.19
2023-01-26T23:22:43.102Z,99844.78
2023-01-26T23:25:49.127Z,99820.44
2023-01-26T23:28:40.182Z,99833.00
2023-01-26T23:31:29.117Z,99817.81
2023-01-26T23:34:16.795Z,99818.53
2023-01-26T23:37:04.415Z,99849.19
2023-01-26T23:39:52.180Z,99835.91
2023-01-26T23:43:00.342Z,99834.66
2023-01-26T23:45:51.610Z,99841.56
2023-01-26T23:48:39.463Z,99830.34
2023-01-26T23:51:27.275Z,99830.28
2023-01-26T23:54:15.103Z,99823.81
2023-01-26T23:57:02.828Z,99813.34
2023-01-26T23:59:50.500Z,99789.78
